Time;durP1;ratioP1;P1;durP2;ratioP2;P2;SDS_P1;SDS_P2;PMS_P1;PMS_P2;Temp;Humidity;BMP_temperature;BMP_pressure;BME280_temperature;BME280_humidity;BME280_pressure;Samples;Min_cycle;Max_cycle;Signal;HPM_P1;HPM_P2
2022/10/17 00:00:02;;;;;;;18.00;9.40;;;15.40;99.90;;;;;;5055556;28;20534;-83
2022/10/17 00:02:30;;;;;;;13.90;9.13;;;15.40;99.90;;;;;;5056437;28;20657;-84
2022/10/17 00:04:57;;;;;;;12.10;8.93;;;15.40;99.90;;;;;;5055853;28;20192;-83
2022/10/17 00:07:26;;;;;;;15.87;8.53;;;15.40;99.90;;;;;;5055859;28;20204;-84
2022/10/17 00:09:53;;;;;;;11.73;9.10;;;15.40;99.90;;;;;;5056134;28;20204;-84
2022/10/17 00:12:20;;;;;;;9.63;8.43;;;15.60;99.90;;;;;;5054452;28;20198;-84
2022/10/17 00:14:49;;;;;;;9.57;8.10;;;15.50;99.90;;;;;;5055703;28;20201;-83
2022/10/17 00:17:23;;;;;;;12.00;9.00;;;15.50;99.90;;;;;;5071070;28;20225;-84
2022/10/17 00:19:50;;;;;;;11.93;8.60;;;15.50;99.90;;;;;;5075560;28;20212;-84
2022/10/17 00:22:19;;;;;;;9.47;8.57;;;15.60;99.90;;;;;;5075573;28;20196;-83
2022/10/17 00:24:46;;;;;;;13.73;9.10;;;15.60;99.90;;;;;;5075620;28;20192;-84
2022/10/17 00:27:12;;;;;;;10.17;8.40;;;15.60;99.90;;;;;;5073939;28;20209;-84
2022/10/17 00:29:39;;;;;;;12.40;9.13;;;15.60;99.90;;;;;;5075784;28;20207;-83
2022/10/17 00:32:07;;;;;;;10.00;8.97;;;15.60;99.90;;;;;;5075705;28;20664;-84
2022/10/17 00:34:42;;;;;;;14.87;9.23;;;15.70;99.90;;;;;;5075634;28;20196;-84
2022/10/17 00:37:10;;;;;;;13.57;8.83;;;15.70;99.90;;;;;;5075473;28;20231;-83
2022/10/17 00:39:37;;;;;;;13.40;8.87;;;15.70;99.90;;;;;;5075296;28;20200;-82
2022/10/17 00:42:05;;;;;;;11.87;9.20;;;15.80;99.90;;;;;;5075241;28;20574;-83
2022/10/17 00:45:12;;;;;;;11.83;8.67;;;15.80;99.90;;;;;;5075798;28;20193;-84
2022/10/17 00:47:40;;;;;;;12.23;8.50;;;15.70;99.90;;;;;;5075255;28;20582;-83
2022/10/17 00:50:10;;;;;;;11.97;8.67;;;15.70;99.90;;;;;;5075383;28;20189;-84
2022/10/17 00:52:39;;;;;;;12.47;8.40;;;15.80;99.90;;;;;;5074249;28;20208;-83
2022/10/17 00:55:12;;;;;;;14.83;8.57;;;15.70;99.90;;;;;;5074736;28;20211;-83
2022/10/17 00:57:40;;;;;;;12.57;8.20;;;15.70;99.90;;;;;;5074757;28;20244;-83
2022/10/17 01:00:11;;;;;;;9.97;7.93;;;15.70;99.90;;;;;;5075181;28;20581;-84
2022/10/17 01:02:38;;;;;;;13.57;8.03;;;15.70;99.90;;;;;;5075112;28;20220;-83
2022/10/17 01:05:09;;;;;;;9.77;8.67;;;15.70;99.90;;;;;;5075179;28;20199;-83
2022/10/17 01:07:39;;;;;;;10.33;8.43;;;15.80;99.90;;;;;;5075047;28;20212;-84
2022/10/17 01:10:10;;;;;;;9.43;8.17;;;15.80;99.90;;;;;;5074858;28;20206;-83
2022/10/17 01:12:48;;;;;;;11.63;8.37;;;15.80;99.90;;;;;;5074465;28;20205;-83
2022/10/17 01:15:26;;;;;;;9.40;7.87;;;15.80;99.90;;;;;;5074936;28;20562;-81
2022/10/17 01:18:07;;;;;;;9.57;8.47;;;15.80;99.90;;;;;;5074713;28;20231;-83
2022/10/17 01:21:13;;;;;;;13.03;8.77;;;15.90;99.90;;;;;;5074475;28;20649;-82
2022/10/17 01:24:03;;;;;;;11.27;7.67;;;15.80;99.90;;;;;;5074551;28;20204;-84
2022/10/17 01:26:43;;;;;;;10.47;8.07;;;15.80;99.90;;;;;;5074577;28;20200;-83
2022/10/17 01:29:38;;;;;;;10.53;8.70;;;15.70;99.90;;;;;;5073967;28;20568;-83
2022/10/17 01:32:15;;;;;;;10.37;8.27;;;15.80;99.90;;;;;;5074313;28;20204;-83
2022/10/17 01:34:49;;;;;;;9.83;8.37;;;15.60;99.90;;;;;;5074370;28;20217;-83
2022/10/17 01:37:21;;;;;;;9.03;7.23;;;15.70;99.90;;;;;;5072972;28;20227;-84
2022/10/17 01:39:53;;;;;;;12.90;8.07;;;15.60;99.90;;;;;;5073921;28;20637;-83
2022/10/17 01:42:24;;;;;;;15.40;8.07;;;15.70;99.90;;;;;;5074216;28;20211;-83
2022/10/17 01:44:56;;;;;;;11.53;8.07;;;15.70;99.90;;;;;;5074095;28;20544;-83
2022/10/17 01:47:28;;;;;;;15.10;8.03;;;15.70;99.90;;;;;;5073953;28;20653;-83
2022/10/17 01:50:00;;;;;;;13.70;8.17;;;15.80;99.90;;;;;;5069485;28;20198;-83
2022/10/17 01:52:31;;;;;;;10.33;8.03;;;15.80;99.90;;;;;;5070534;28;20202;-82
2022/10/17 01:55:04;;;;;;;13.20;8.37;;;15.80;99.90;;;;;;5071975;28;20205;-82
2022/10/17 01:57:35;;;;;;;13.50;7.50;;;15.80;99.90;;;;;;5071988;28;20715;-82
2022/10/17 02:00:09;;;;;;;10.93;8.07;;;15.80;99.90;;;;;;5073717;28;20230;-84
2022/10/17 02:02:41;;;;;;;10.10;8.53;;;15.70;99.90;;;;;;5073879;28;20210;-83
2022/10/17 02:05:08;;;;;;;9.17;8.23;;;15.70;99.90;;;;;;5073958;28;20197;-84
2022/10/17 02:07:35;;;;;;;10.47;8.70;;;15.70;99.90;;;;;;5073669;28;20201;-84
2022/10/17 02:10:15;;;;;;;8.60;7.83;;;15.80;99.90;;;;;;5073422;28;20198;-83
2022/10/17 02:12:50;;;;;;;9.03;8.10;;;15.80;99.90;;;;;;5073289;28;20213;-83
2022/10/17 02:15:47;;;;;;;9.93;8.10;;;15.80;99.90;;;;;;5074043;28;20197;-84
2022/10/17 02:18:30;;;;;;;11.17;7.70;;;15.80;99.90;;;;;;5063113;28;20684;-83
2022/10/17 02:21:02;;;;;;;13.98;10.68;;;16.00;99.90;;;;;;5072719;28;20442;-83
2022/10/17 02:23:40;;;;;;;9.83;8.83;;;16.10;99.90;;;;;;5073376;28;20190;-83
2022/10/17 02:26:14;;;;;;;12.37;8.13;;;16.10;99.90;;;;;;5073323;28;20212;-83
2022/10/17 02:28:47;;;;;;;10.37;8.13;;;16.10;99.90;;;;;;5073174;28;20198;-83
2022/10/17 02:31:20;;;;;;;10.70;8.07;;;16.20;99.90;;;;;;5073340;28;20679;-83
2022/10/17 02:33:54;;;;;;;11.93;9.07;;;16.20;99.90;;;;;;5073323;28;20195;-83
2022/10/17 02:36:24;;;;;;;15.10;8.60;;;16.20;99.90;;;;;;5073263;28;20205;-83
2022/10/17 02:38:55;;;;;;;10.63;8.47;;;16.30;99.90;;;;;;5073017;28;20206;-83
2022/10/17 02:41:28;;;;;;;10.20;8.10;;;16.30;99.90;;;;;;5073024;28;20281;-83
2022/10/17 02:43:55;;;;;;;8.90;7.63;;;16.20;99.90;;;;;;5073544;28;20213;-83
2022/10/17 02:46:24;;;;;;;9.50;8.53;;;16.30;99.90;;;;;;5073275;28;20202;-82
2022/10/17 02:48:58;;;;;;;11.20;8.17;;;16.30;99.90;;;;;;5073281;28;20217;-83
2022/10/17 02:51:33;;;;;;;12.67;8.13;;;16.40;99.90;;;;;;5073017;28;20230;-83
2022/10/17 02:54:08;;;;;;;13.33;8.47;;;16.50;99.90;;;;;;5071605;28;20197;-83
2022/10/17 02:56:42;;;;;;;9.77;7.90;;;16.50;99.90;;;;;;5072756;28;20190;-83
2022/10/17 02:59:14;;;;;;;11.43;8.43;;;16.60;99.90;;;;;;5073321;28;20193;-83
2022/10/17 03:01:43;;;;;;;8.37;7.47;;;16.70;99.90;;;;;;5072713;28;20200;-83
2022/10/17 03:04:14;;;;;;;14.07;7.90;;;16.80;99.90;;;;;;5073004;28;20209;-83
2022/10/17 03:06:44;;;;;;;9.07;7.00;;;16.90;99.90;;;;;;5072548;28;20198;-83
2022/10/17 03:09:11;;;;;;;9.60;7.50;;;16.90;99.90;;;;;;5072628;28;20213;-83
2022/10/17 03:11:40;;;;;;;11.20;7.67;;;16.90;99.90;;;;;;5073040;28;20202;-83
2022/10/17 03:14:07;;;;;;;11.17;7.40;;;17.00;99.90;;;;;;5073049;28;20203;-83
2022/10/17 03:16:34;;;;;;;7.93;7.07;;;17.00;99.90;;;;;;5072556;28;20204;-83
2022/10/17 03:19:03;;;;;;;8.33;7.53;;;17.10;99.90;;;;;;5072818;28;20197;-83
2022/10/17 03:21:35;;;;;;;9.20;7.33;;;17.10;99.90;;;;;;5072378;28;20202;-83
2022/10/17 03:24:02;;;;;;;7.57;6.90;;;17.20;99.90;;;;;;5073023;28;20200;-83
2022/10/17 03:26:30;;;;;;;8.00;6.23;;;17.10;99.90;;;;;;5073020;28;20200;-82
2022/10/17 03:28:57;;;;;;;8.40;6.83;;;17.20;99.90;;;;;;5072609;28;20196;-83
2022/10/17 03:31:26;;;;;;;7.23;6.50;;;17.20;99.90;;;;;;5072783;28;20211;-83
2022/10/17 03:33:54;;;;;;;8.33;6.13;;;17.50;99.90;;;;;;5072496;28;20199;-83
2022/10/17 03:36:20;;;;;;;7.90;6.33;;;17.30;99.90;;;;;;5068401;28;20205;-83
2022/10/17 03:38:53;;;;;;;10.20;6.40;;;17.30;99.90;;;;;;5072479;28;20233;-83
2022/10/17 03:41:21;;;;;;;9.10;6.43;;;17.60;99.90;;;;;;5072650;28;20215;-83
2022/10/17 03:43:49;;;;;;;9.67;6.70;;;17.40;99.90;;;;;;5072416;28;20202;-83
2022/10/17 03:46:17;;;;;;;7.93;5.90;;;17.40;99.90;;;;;;5072647;28;20216;-84
2022/10/17 03:48:44;;;;;;;12.20;6.43;;;17.40;99.90;;;;;;5072707;28;20213;-83
2022/10/17 03:51:11;;;;;;;9.00;5.80;;;17.50;99.90;;;;;;5072038;28;20216;-84
2022/10/17 03:53:38;;;;;;;7.83;5.90;;;17.50;99.90;;;;;;5073924;28;20202;-83
2022/10/17 03:56:16;;;;;;;6.27;5.67;;;17.50;99.90;;;;;;5076571;28;20197;-83
2022/10/17 03:58:43;;;;;;;6.63;6.13;;;17.50;99.90;;;;;;5075834;28;20716;-82
2022/10/17 04:01:12;;;;;;;7.63;5.47;;;17.60;99.90;;;;;;5075978;28;20562;-83
2022/10/17 04:03:39;;;;;;;6.37;5.43;;;17.60;99.90;;;;;;5075870;28;20208;-83
2022/10/17 04:06:07;;;;;;;6.93;6.00;;;17.70;99.90;;;;;;5075729;28;20211;-82
2022/10/17 04:08:36;;;;;;;6.53;6.00;;;17.60;99.90;;;;;;5076089;28;20225;-84
2022/10/17 04:11:04;;;;;;;5.73;5.27;;;17.60;99.90;;;;;;5075917;28;20200;-84
2022/10/17 04:13:37;;;;;;;8.40;6.00;;;17.50;99.90;;;;;;5075858;28;20653;-83
2022/10/17 04:16:07;;;;;;;8.63;6.20;;;17.60;99.90;;;;;;5076011;28;20205;-84
2022/10/17 04:18:34;;;;;;;7.90;5.67;;;17.60;99.90;;;;;;5075774;28;20230;-83
2022/10/17 04:21:03;;;;;;;6.50;5.90;;;17.60;99.90;;;;;;5075384;28;20209;-84
2022/10/17 04:23:31;;;;;;;8.63;6.18;;;17.60;99.90;;;;;;5074959;28;20423;-82
2022/10/17 04:26:02;;;;;;;8.53;6.07;;;17.80;99.90;;;;;;5076049;28;20215;-83
2022/10/17 04:28:31;;;;;;;9.67;5.80;;;17.70;99.90;;;;;;5076135;28;20673;-83
2022/10/17 04:31:07;;;;;;;8.17;5.53;;;17.70;99.90;;;;;;5075896;28;20209;-85
2022/10/17 04:33:35;;;;;;;10.63;6.97;;;17.70;99.90;;;;;;5075041;28;20285;-84
2022/10/17 04:36:06;;;;;;;5.87;5.20;;;17.60;99.90;;;;;;5075517;28;20663;-84
2022/10/17 04:38:34;;;;;;;6.73;6.00;;;17.60;99.90;;;;;;5075348;28;20236;-85
2022/10/17 04:41:03;;;;;;;7.13;4.90;;;17.60;99.90;;;;;;5075417;28;20208;-83
2022/10/17 04:43:30;;;;;;;12.47;6.10;;;17.50;99.90;;;;;;5075839;28;20201;-83
2022/10/17 04:46:01;;;;;;;9.93;5.60;;;17.50;99.90;;;;;;5075351;28;20211;-83
2022/10/17 04:48:29;;;;;;;6.27;5.87;;;17.60;99.90;;;;;;5075161;28;20204;-83
2022/10/17 04:50:58;;;;;;;7.00;5.20;;;17.60;99.90;;;;;;5075189;28;20217;-83
2022/10/17 04:53:27;;;;;;;7.72;6.20;;;17.60;99.90;;;;;;5074560;28;20428;-84
2022/10/17 04:55:55;;;;;;;6.17;5.67;;;17.80;99.90;;;;;;5074891;28;20209;-83
2022/10/17 04:58:22;;;;;;;7.67;5.33;;;17.80;99.90;;;;;;5074014;28;20238;-83
2022/10/17 05:00:49;;;;;;;10.10;5.90;;;17.60;99.90;;;;;;5069660;28;20210;-83
2022/10/17 05:03:17;;;;;;;8.57;5.33;;;17.50;99.90;;;;;;5063949;28;20237;-84
2022/10/17 05:05:45;;;;;;;7.13;5.67;;;17.50;99.90;;;;;;5072992;28;20205;-84
2022/10/17 05:08:12;;;;;;;9.17;5.43;;;17.60;99.90;;;;;;5074378;28;20209;-84
2022/10/17 05:10:44;;;;;;;8.50;5.30;;;17.50;99.90;;;;;;5075296;28;20203;-84
2022/10/17 05:13:12;;;;;;;6.17;5.50;;;17.50;99.90;;;;;;5075441;28;20208;-84
2022/10/17 05:15:42;;;;;;;6.90;5.40;;;17.50;99.90;;;;;;5074371;28;20212;-84
2022/10/17 05:18:11;;;;;;;8.57;5.20;;;17.60;99.90;;;;;;5074623;28;20318;-84
2022/10/17 05:20:41;;;;;;;6.07;5.47;;;17.70;99.90;;;;;;5074862;28;20215;-83
2022/10/17 05:23:08;;;;;;;7.83;5.10;;;17.70;99.90;;;;;;5074831;28;20278;-84
2022/10/17 05:25:35;;;;;;;6.70;5.40;;;17.60;99.90;;;;;;5074782;28;20209;-84
2022/10/17 05:28:02;;;;;;;7.27;5.47;;;17.60;99.90;;;;;;5074525;28;20577;-85
2022/10/17 05:30:32;;;;;;;7.23;5.70;;;17.70;99.90;;;;;;5074628;28;20211;-85
2022/10/17 05:32:59;;;;;;;6.10;4.53;;;17.70;99.90;;;;;;5074460;28;20198;-84
2022/10/17 05:35:27;;;;;;;5.30;4.87;;;17.70;99.90;;;;;;5074507;28;20202;-84
2022/10/17 05:37:58;;;;;;;6.03;5.43;;;17.70;99.90;;;;;;5074415;28;20233;-85
2022/10/17 05:40:26;;;;;;;5.33;4.90;;;17.70;99.90;;;;;;5074528;28;20266;-83
2022/10/17 05:42:54;;;;;;;7.97;5.10;;;17.70;99.90;;;;;;5074322;28;20215;-84
2022/10/17 05:45:21;;;;;;;8.63;5.10;;;17.80;99.90;;;;;;5074421;28;20201;-84
2022/10/17 05:47:48;;;;;;;6.13;4.87;;;17.90;99.90;;;;;;5074042;28;20193;-84
2022/10/17 05:50:15;;;;;;;6.37;4.77;;;17.80;99.90;;;;;;5074725;28;20222;-85
2022/10/17 05:52:41;;;;;;;8.95;5.32;;;17.90;99.90;;;;;;5073277;28;20532;-85
2022/10/17 05:55:10;;;;;;;8.43;4.90;;;18.00;99.90;;;;;;5074101;28;20189;-85
2022/10/17 05:57:39;;;;;;;7.27;5.07;;;18.00;99.90;;;;;;5074356;28;20234;-85
2022/10/17 06:00:08;;;;;;;5.63;5.03;;;17.90;99.90;;;;;;5074158;28;20577;-85
2022/10/17 06:02:36;;;;;;;5.83;4.70;;;17.80;99.90;;;;;;5073906;28;20217;-85
2022/10/17 06:05:04;;;;;;;8.13;5.23;;;17.80;99.90;;;;;;5074095;28;20205;-84
2022/10/17 06:07:37;;;;;;;6.57;5.13;;;17.70;99.90;;;;;;5073524;28;20202;-84
2022/10/17 06:10:06;;;;;;;6.73;4.83;;;17.80;99.90;;;;;;5073609;28;20193;-84
2022/10/17 06:12:34;;;;;;;7.13;4.70;;;17.70;99.90;;;;;;5073867;28;20217;-84
2022/10/17 06:15:02;;;;;;;6.77;4.93;;;17.70;99.90;;;;;;5073869;28;20215;-84
2022/10/17 06:17:31;;;;;;;5.20;4.80;;;17.70;99.90;;;;;;5072742;28;20674;-84
2022/10/17 06:20:00;;;;;;;9.60;5.23;;;17.70;99.90;;;;;;5073701;28;20188;-84
2022/10/17 06:22:28;;;;;;;7.57;5.53;;;17.60;99.90;;;;;;5072943;28;20760;-84
2022/10/17 06:24:56;;;;;;;9.37;5.33;;;17.70;99.90;;;;;;5074102;28;20201;-85
2022/10/17 06:27:24;;;;;;;10.27;5.33;;;17.60;99.90;;;;;;5073650;28;20192;-85
2022/10/17 06:29:52;;;;;;;8.67;5.27;;;17.70;99.90;;;;;;5073737;28;20219;-86
2022/10/17 06:32:21;;;;;;;7.40;5.60;;;17.60;99.90;;;;;;5073699;28;20201;-84
2022/10/17 06:34:48;;;;;;;6.97;5.77;;;17.60;99.90;;;;;;5073506;28;20278;-85
2022/10/17 06:37:15;;;;;;;19.83;7.50;;;17.60;99.90;;;;;;5073337;28;20203;-82
2022/10/17 06:39:41;;;;;;;8.30;6.93;;;17.40;99.90;;;;;;5073291;28;20298;-83
2022/10/17 06:42:08;;;;;;;8.57;6.10;;;17.30;99.90;;;;;;5072999;28;20199;-82
2022/10/17 06:44:35;;;;;;;9.90;6.10;;;17.20;99.90;;;;;;5072984;28;20215;-82
2022/10/17 06:47:05;;;;;;;10.67;6.40;;;17.10;99.90;;;;;;5073259;28;20187;-82
2022/10/17 06:49:33;;;;;;;9.17;7.03;;;17.10;99.90;;;;;;5072656;28;20214;-83
2022/10/17 06:52:01;;;;;;;8.20;6.70;;;17.10;99.90;;;;;;5071265;28;20293;-82
2022/10/17 06:54:29;;;;;;;9.67;7.30;;;17.00;99.90;;;;;;5072738;28;20203;-83
2022/10/17 06:56:55;;;;;;;9.90;6.70;;;17.10;99.90;;;;;;5072919;28;20238;-83
2022/10/17 06:59:23;;;;;;;13.37;7.23;;;17.00;99.90;;;;;;5072208;28;20710;-82
2022/10/17 07:01:50;;;;;;;10.37;7.30;;;17.10;99.90;;;;;;5073003;28;20203;-83
2022/10/17 07:04:19;;;;;;;11.97;6.93;;;17.00;99.90;;;;;;5061284;28;20227;-82
2022/10/17 07:06:46;;;;;;;10.97;7.27;;;17.00;99.90;;;;;;5061881;28;20220;-82
2022/10/17 07:09:12;;;;;;;9.00;6.37;;;17.10;99.90;;;;;;5062209;28;20202;-83
2022/10/17 07:11:41;;;;;;;8.23;5.37;;;17.10;99.90;;;;;;5063730;28;20199;-83
2022/10/17 07:14:08;;;;;;;6.93;4.60;;;17.00;99.90;;;;;;5062062;28;20194;-82
2022/10/17 07:16:41;;;;;;;7.13;5.20;;;16.90;99.90;;;;;;5056135;28;20214;-86
2022/10/17 07:19:08;;;;;;;6.10;5.23;;;16.80;99.90;;;;;;5053252;28;20240;-86
2022/10/17 07:21:38;;;;;;;6.03;5.40;;;16.80;99.90;;;;;;5060723;28;20200;-84
2022/10/17 07:24:06;;;;;;;11.75;8.13;;;16.80;99.90;;;;;;5061198;28;20445;-83
2022/10/17 07:26:33;;;;;;;11.30;6.80;;;16.80;99.90;;;;;;5061864;28;20223;-83
2022/10/17 07:29:01;;;;;;;9.47;7.03;;;16.80;99.90;;;;;;5068116;28;20212;-85
2022/10/17 07:31:27;;;;;;;8.90;6.77;;;16.90;99.90;;;;;;5058752;28;20287;-86
2022/10/17 07:33:54;;;;;;;7.87;6.70;;;16.90;99.90;;;;;;5056946;28;20199;-84
2022/10/17 07:36:21;;;;;;;12.10;7.00;;;16.90;99.90;;;;;;5064526;28;20205;-85
2022/10/17 07:38:49;;;;;;;9.27;6.73;;;16.70;99.90;;;;;;5076588;28;20238;-86
2022/10/17 07:41:16;;;;;;;8.07;5.90;;;16.70;99.90;;;;;;5076208;28;20662;-85
2022/10/17 07:43:43;;;;;;;9.00;6.20;;;16.70;99.90;;;;;;5075503;28;20567;-85
2022/10/17 07:46:10;;;;;;;8.23;6.27;;;16.80;99.90;;;;;;5075901;28;20211;-84
2022/10/17 07:48:38;;;;;;;10.43;6.23;;;16.80;99.90;;;;;;5076874;28;20217;-86
2022/10/17 07:51:07;;;;;;;10.57;6.40;;;16.80;99.90;;;;;;5078732;28;20596;-85
2022/10/17 07:53:36;;;;;;;9.85;7.00;;;16.90;99.90;;;;;;5080765;28;20439;-85
2022/10/17 07:56:06;;;;;;;8.20;5.93;;;16.90;99.90;;;;;;5081703;28;20240;-85
2022/10/17 07:58:33;;;;;;;8.00;5.83;;;17.00;99.90;;;;;;5082262;28;20228;-86
2022/10/17 08:01:01;;;;;;;5.80;5.20;;;17.00;99.90;;;;;;5082569;28;20227;-84
2022/10/17 08:03:28;;;;;;;6.97;5.37;;;16.90;99.90;;;;;;5080446;28;20210;-84
2022/10/17 08:05:58;;;;;;;7.07;5.30;;;16.90;99.90;;;;;;5085307;28;20217;-85
2022/10/17 08:08:25;;;;;;;8.97;4.67;;;16.80;99.90;;;;;;5078452;28;20205;-86
2022/10/17 08:10:52;;;;;;;5.80;5.30;;;16.90;99.90;;;;;;5076150;28;20189;-84
2022/10/17 08:13:21;;;;;;;9.77;5.30;;;16.90;99.90;;;;;;5076392;28;20195;-85
2022/10/17 08:15:48;;;;;;;7.20;4.80;;;16.90;99.90;;;;;;5075958;28;20212;-85
2022/10/17 08:18:16;;;;;;;6.90;5.77;;;16.80;99.90;;;;;;5076099;28;20208;-84
2022/10/17 08:20:43;;;;;;;6.63;5.53;;;16.90;99.90;;;;;;5075342;28;20210;-85
2022/10/17 08:23:10;;;;;;;8.23;5.03;;;16.90;99.90;;;;;;5071981;28;20202;-86
2022/10/17 08:25:38;;;;;;;7.93;5.00;;;16.90;99.90;;;;;;5061266;28;20662;-83
2022/10/17 08:28:05;;;;;;;5.73;5.13;;;17.00;99.90;;;;;;5056218;28;20208;-86
2022/10/17 08:30:34;;;;;;;8.30;5.20;;;16.90;99.90;;;;;;5056188;28;20214;-85
2022/10/17 08:33:00;;;;;;;6.67;4.60;;;17.00;99.90;;;;;;5055521;28;20577;-84
2022/10/17 08:35:27;;;;;;;5.67;5.03;;;17.00;99.90;;;;;;5055961;28;20251;-84
2022/10/17 08:37:54;;;;;;;6.70;4.63;;;17.10;99.90;;;;;;5056210;28;20212;-87
2022/10/17 08:40:25;;;;;;;5.70;5.20;;;17.10;99.90;;;;;;5054350;28;20218;-86
2022/10/17 08:43:11;;;;;;;6.00;5.27;;;17.00;99.90;;;;;;5055405;28;20210;-84
2022/10/17 08:45:47;;;;;;;9.03;5.30;;;17.10;99.90;;;;;;5054594;28;20645;-86
2022/10/17 08:48:17;;;;;;;8.37;5.73;;;17.10;99.90;;;;;;5054448;28;20213;-87
2022/10/17 08:50:49;;;;;;;6.47;5.20;;;17.20;99.90;;;;;;5054519;28;20223;-86
2022/10/17 08:53:22;;;;;;;7.00;5.77;;;17.30;99.90;;;;;;5054753;28;20213;-86
2022/10/17 08:55:50;;;;;;;8.63;7.53;;;17.50;99.90;;;;;;5053617;28;20425;-87
2022/10/17 08:58:20;;;;;;;8.77;6.37;;;17.50;99.90;;;;;;5054694;28;20230;-90
2022/10/17 09:00:57;;;;;;;11.00;6.37;;;17.40;99.90;;;;;;5055523;28;20190;-86
2022/10/17 09:03:39;;;;;;;8.20;5.90;;;17.40;99.90;;;;;;5055433;28;20228;-86
2022/10/17 09:06:14;;;;;;;7.40;6.40;;;17.40;99.90;;;;;;5055667;28;20210;-88
2022/10/17 09:08:49;;;;;;;8.43;7.17;;;17.40;99.90;;;;;;5055900;28;20201;-90
2022/10/17 09:11:28;;;;;;;11.07;6.80;;;17.40;99.90;;;;;;5058037;28;20217;-83
2022/10/17 09:14:02;;;;;;;7.57;6.03;;;17.30;99.90;;;;;;5056605;28;20579;-88
2022/10/17 09:16:48;;;;;;;10.27;6.53;;;17.40;99.90;;;;;;5055924;28;20204;-90
2022/10/17 09:19:21;;;;;;;6.73;6.07;;;17.50;99.90;;;;;;5058722;28;20220;-92
2022/10/17 09:21:53;;;;;;;7.37;6.20;;;17.50;99.90;;;;;;5056688;28;20206;-90
2022/10/17 09:24:27;;;;;;;7.23;6.43;;;17.50;99.90;;;;;;5057338;28;20201;-91
2022/10/17 09:26:55;;;;;;;11.40;6.87;;;17.50;99.90;;;;;;5056598;28;20199;-89
2022/10/17 09:29:24;;;;;;;6.83;6.20;;;17.50;99.90;;;;;;5055935;28;20211;-89
2022/10/17 09:31:58;;;;;;;11.53;6.87;;;17.50;99.90;;;;;;5055167;28;20677;-88
2022/10/17 09:34:29;;;;;;;7.30;6.60;;;17.40;99.90;;;;;;5055683;28;20247;-88
2022/10/17 09:36:58;;;;;;;6.90;5.93;;;17.50;99.90;;;;;;5065387;28;20198;-88
2022/10/17 09:39:30;;;;;;;7.70;6.80;;;17.40;99.90;;;;;;5063057;28;20213;-87
2022/10/17 09:42:03;;;;;;;8.20;6.50;;;17.50;99.90;;;;;;5057505;28;20218;-92
2022/10/17 09:44:34;;;;;;;9.47;6.60;;;17.60;99.90;;;;;;5055773;28;20187;-91
2022/10/17 09:47:18;;;;;;;8.40;6.63;;;17.60;99.90;;;;;;5055959;28;20195;-90
2022/10/17 09:49:47;;;;;;;8.95;8.05;;;17.60;99.90;;;;;;5054580;28;20429;-88
2022/10/17 09:52:24;;;;;;;14.07;7.53;;;17.90;99.90;;;;;;5053980;28;20734;-84
2022/10/17 09:54:59;;;;;;;7.50;6.80;;;17.80;99.90;;;;;;5074217;28;20201;-85
2022/10/17 09:57:28;;;;;;;7.40;6.40;;;17.80;99.90;;;;;;5072542;28;20236;-87
2022/10/17 10:00:00;;;;;;;7.33;6.23;;;17.70;99.90;;;;;;5074610;28;20690;-88
2022/10/17 10:02:31;;;;;;;10.80;6.57;;;17.80;99.90;;;;;;5074177;28;20660;-87
2022/10/17 10:05:01;;;;;;;9.83;6.97;;;17.70;99.90;;;;;;5073838;28;20702;-89
2022/10/17 10:07:31;;;;;;;11.07;7.40;;;17.80;99.90;;;;;;5074053;28;20605;-86
2022/10/17 10:10:06;;;;;;;8.47;6.77;;;17.80;99.90;;;;;;5074067;28;20607;-87
2022/10/17 10:12:37;;;;;;;8.33;7.40;;;17.70;99.90;;;;;;5074548;28;20204;-87
2022/10/17 10:15:32;;;;;;;7.83;7.03;;;17.60;99.90;;;;;;5074752;28;20197;-87
2022/10/17 10:18:02;;;;;;;7.60;6.20;;;17.70;99.90;;;;;;5074567;28;20246;-87
2022/10/17 10:20:34;;;;;;;8.53;6.47;;;17.80;99.90;;;;;;5074842;28;20680;-87
2022/10/17 10:23:12;;;;;;;9.63;6.77;;;17.80;99.90;;;;;;5075486;28;20198;-87
2022/10/17 10:25:56;;;;;;;8.00;6.63;;;17.80;99.90;;;;;;5074230;28;20250;-88
2022/10/17 10:28:31;;;;;;;7.90;6.73;;;17.70;99.90;;;;;;5074344;28;20194;-88
2022/10/17 10:31:06;;;;;;;8.97;6.37;;;17.70;99.90;;;;;;5073762;28;20565;-87
2022/10/17 10:33:40;;;;;;;8.33;6.73;;;17.60;99.90;;;;;;5066813;28;20216;-84
2022/10/17 10:36:08;;;;;;;8.47;7.00;;;17.50;99.90;;;;;;5073983;28;20201;-87
2022/10/17 10:38:39;;;;;;;9.73;7.63;;;17.30;99.90;;;;;;5074689;28;20231;-90
2022/10/17 10:41:09;;;;;;;10.73;7.23;;;17.30;99.90;;;;;;5073958;28;20232;-89
2022/10/17 10:43:42;;;;;;;9.82;8.52;;;17.40;99.90;;;;;;5073272;28;20431;-88
2022/10/17 10:46:18;;;;;;;9.47;8.03;;;17.50;99.90;;;;;;5073567;28;20210;-84
2022/10/17 10:48:53;;;;;;;7.90;6.27;;;17.60;99.90;;;;;;5073152;28;20207;-87
2022/10/17 10:51:25;;;;;;;6.03;5.47;;;17.60;99.90;;;;;;5073144;28;20216;-87
2022/10/17 10:54:00;;;;;;;9.37;5.23;;;17.60;99.90;;;;;;5073234;28;20212;-83
2022/10/17 10:56:36;;;;;;;6.23;5.40;;;17.70;99.90;;;;;;5073326;28;20224;-84
2022/10/17 10:59:09;;;;;;;6.13;5.53;;;17.90;99.90;;;;;;5073406;28;20553;-84
2022/10/17 11:01:46;;;;;;;7.73;5.03;;;18.00;99.90;;;;;;5072198;28;20212;-83
2022/10/17 11:04:23;;;;;;;5.20;4.80;;;18.20;99.90;;;;;;5062460;28;20206;-84
2022/10/17 11:07:02;;;;;;;5.00;4.60;;;18.20;99.90;;;;;;5052615;28;20206;-85
2022/10/17 11:09:44;;;;;;;4.50;4.10;;;18.40;99.90;;;;;;5052685;28;20564;-85
2022/10/17 11:12:18;;;;;;;6.43;4.70;;;18.40;99.90;;;;;;5066957;28;20285;-83
2022/10/17 11:14:53;;;;;;;4.37;4.07;;;18.40;99.90;;;;;;5052507;28;20670;-85
2022/10/17 11:17:30;;;;;;;4.70;4.23;;;18.50;99.90;;;;;;5052916;28;20194;-82
2022/10/17 11:20:09;;;;;;;8.83;4.80;;;18.50;99.90;;;;;;5051243;28;20220;-84
2022/10/17 11:22:41;;;;;;;7.90;5.17;;;18.50;99.90;;;;;;5052249;28;20206;-84
2022/10/17 11:25:20;;;;;;;5.60;5.10;;;18.50;99.90;;;;;;5052960;28;20577;-84
2022/10/17 11:27:48;;;;;;;7.73;4.70;;;18.50;99.90;;;;;;5053142;28;20195;-84
2022/10/17 11:30:16;;;;;;;5.73;5.00;;;18.60;99.90;;;;;;5052564;28;20214;-85
2022/10/17 11:32:46;;;;;;;7.63;5.13;;;18.60;99.90;;;;;;5052669;28;20203;-83
2022/10/17 11:35:24;;;;;;;5.60;5.20;;;18.70;99.90;;;;;;5050919;28;20570;-84
2022/10/17 11:38:00;;;;;;;5.60;5.10;;;18.70;99.90;;;;;;5067045;28;20206;-84
2022/10/17 11:40:33;;;;;;;5.87;5.33;;;18.90;99.90;;;;;;5052244;28;20260;-82
2022/10/17 11:43:03;;;;;;;8.53;6.10;;;18.90;99.90;;;;;;5052380;28;20195;-84
2022/10/17 11:45:42;;;;;;;7.27;5.90;;;18.70;99.90;;;;;;5052644;28;20206;-83
2022/10/17 11:48:17;;;;;;;6.43;5.57;;;18.80;99.90;;;;;;5060387;28;20202;-87
2022/10/17 11:50:49;;;;;;;9.87;6.30;;;18.80;99.90;;;;;;5051654;28;20222;-83
2022/10/17 11:53:19;;;;;;;10.30;5.50;;;18.80;99.90;;;;;;5051467;28;20317;-83
2022/10/17 11:55:47;;;;;;;7.70;5.70;;;18.70;99.90;;;;;;5052426;28;20565;-83
2022/10/17 11:58:29;;;;;;;7.00;5.80;;;18.70;99.90;;;;;;5051179;28;20224;-81
2022/10/17 12:01:06;;;;;;;6.53;5.73;;;18.70;99.90;;;;;;5052268;28;20632;-81
2022/10/17 12:03:59;;;;;;;8.50;6.10;;;18.80;99.90;;;;;;5052157;28;20214;-81
2022/10/17 12:06:45;;;;;;;5.30;4.80;;;18.80;99.90;;;;;;5051364;28;20566;-84
2022/10/17 12:09:23;;;;;;;5.93;5.17;;;18.80;99.90;;;;;;5063333;28;20228;-82
2022/10/17 12:11:53;;;;;;;6.27;5.00;;;18.90;99.90;;;;;;5072500;28;20194;-81
2022/10/17 12:14:42;;;;;;;8.20;5.80;;;18.90;99.90;;;;;;5071893;28;20440;-81
2022/10/17 12:17:35;;;;;;;7.03;4.90;;;18.80;99.90;;;;;;5072076;28;20210;-84
2022/10/17 12:20:34;;;;;;;11.53;8.73;;;18.90;99.90;;;;;;5074184;28;20681;-83
2022/10/17 12:23:25;;;;;;;10.20;7.50;;;18.80;99.90;;;;;;5067018;28;20719;-83
2022/10/17 12:25:54;;;;;;;6.80;5.67;;;18.90;99.90;;;;;;5075197;28;20202;-84
2022/10/17 12:28:32;;;;;;;5.33;4.23;;;19.00;99.90;;;;;;5067325;28;20199;-83
2022/10/17 12:31:02;;;;;;;7.83;4.40;;;18.90;99.90;;;;;;5055302;28;20201;-84
2022/10/17 12:33:37;;;;;;;7.60;4.67;;;18.90;99.90;;;;;;5055672;28;20199;-88
2022/10/17 12:36:44;;;;;;;4.80;4.40;;;18.90;99.90;;;;;;5056057;28;20662;-84
2022/10/17 12:39:43;;;;;;;5.93;4.03;;;18.90;99.90;;;;;;5056561;28;20232;-85
2022/10/17 12:42:53;;;;;;;5.17;4.50;;;19.00;99.90;;;;;;5014111;28;20795;-85
2022/10/17 12:45:50;;;;;;;8.50;5.00;;;19.10;99.90;;;;;;5052285;28;20206;-87
2022/10/17 12:49:03;;;;;;;8.13;4.07;;;19.10;99.90;;;;;;5055490;28;20549;-87
2022/10/17 12:51:50;;;;;;;6.40;4.30;;;19.00;99.90;;;;;;5031442;28;20214;-86
2022/10/17 12:54:21;;;;;;;4.10;3.47;;;19.00;99.90;;;;;;5055675;28;20748;-86
2022/10/17 12:56:49;;;;;;;6.27;3.87;;;19.10;99.90;;;;;;5074573;28;20225;-88
2022/10/17 12:59:20;;;;;;;5.87;3.63;;;19.20;99.90;;;;;;5075411;28;20201;-88
2022/10/17 13:01:51;;;;;;;6.63;4.30;;;19.40;99.90;;;;;;5075064;28;20213;-89
2022/10/17 13:04:18;;;;;;;5.97;4.00;;;19.40;99.90;;;;;;5075393;28;20208;-88
2022/10/17 13:06:47;;;;;;;4.00;3.40;;;19.40;99.90;;;;;;5074834;28;20199;-88